Phillipsport, New York
Current Conditions -  °F | °C
As of 2:54 AM on Saturday 25 Oct 2014 (Local Time) from KMGJ Reporting Station
Clear Clear  
Wind Chill:   Ceiling: Unl
Heat Index:   Visibility: 10mi
Dew Point:   Wind: 7mph
Humidity: 56%   Direction: 280°W
Pressure: 29.85"   Gusts: NA
Location:  41.65°N, 74.44°W
Report Text: KMGJ 250654Z AUTO 28006KT 10SM CLR 09/01 A2985 RMK AO2 SLP108 T00940011 TSNO
Loading
Personal Weather Stations






























Interactive Weather Map
Tropical Storm Tracking
New forecast layout! Learn more

10-Day Weather Forecast

Advertisements
Track Severe Weather on mobile